createdAt,value
2019-05-13T04:02:03.714Z,91.400146
2019-05-13T04:05:34.693Z,91.564941
2019-05-13T04:09:20.421Z,91.259766
2019-05-13T04:12:42.507Z,91.357422
2019-05-13T04:16:13.580Z,91.217041
2019-05-13T04:19:43.717Z,91.113281
2019-05-13T04:23:13.891Z,91.418457
2019-05-13T04:26:43.839Z,91.522217
2019-05-13T04:30:14.042Z,92.352295
2019-05-13T04:33:44.163Z,92.352295
2019-05-13T04:37:14.126Z,92.456055
2019-05-13T04:40:44.120Z,92.30957
2019-05-13T04:44:14.092Z,92.510986
2019-05-13T04:47:44.243Z,92.266846
2019-05-13T04:51:14.419Z,92.059326
2019-05-13T04:54:44.220Z,91.809082
2019-05-13T04:58:14.388Z,91.601562
2019-05-13T05:01:48.610Z,91.253662
2019-05-13T05:05:22.105Z,91.046143
2019-05-13T05:08:52.627Z,91.107178
2019-05-13T05:12:23.342Z,91.107178
2019-05-13T05:15:53.316Z,91.210938
2019-05-13T05:19:24.415Z,91.314697
2019-05-13T05:22:54.352Z,91.577148
2019-05-13T05:26:24.326Z,91.784668
2019-05-13T05:29:54.287Z,91.784668
2019-05-13T05:33:24.242Z,91.534424
2019-05-13T05:36:54.343Z,92.053223
2019-05-13T05:40:31.155Z,92.010498
2019-05-13T05:43:58.219Z,91.906738
2019-05-13T05:47:31.724Z,91.760254
2019-05-13T05:51:02.369Z,91.967773
2019-05-13T05:54:32.373Z,92.126465
2019-05-13T05:58:02.349Z,91.717529
2019-05-13T06:01:37.116Z,90.85083
2019-05-13T06:05:05.269Z,90.649414
2019-05-13T06:08:35.239Z,88.140869
2019-05-13T06:12:05.214Z,87.896729
2019-05-13T06:15:36.168Z,87.280273
2019-05-13T06:19:07.106Z,87.548828
2019-05-13T06:22:38.088Z,87.243652
2019-05-13T06:26:09.257Z,86.419678
2019-05-13T06:29:42.216Z,86.279297
2019-05-13T06:33:12.231Z,86.071777
2019-05-13T06:36:42.165Z,85.870361
2019-05-13T06:40:13.343Z,86.383057
2019-05-13T06:43:43.291Z,86.383057
2019-05-13T06:47:13.278Z,86.175537
2019-05-13T06:50:43.273Z,86.138916
2019-05-13T06:54:13.232Z,85.113525
2019-05-13T06:57:43.294Z,84.25293
2019-05-13T07:01:13.271Z,84.14917
2019-05-13T07:04:43.244Z,83.227539
2019-05-13T07:08:13.225Z,83.087158
2019-05-13T07:11:43.210Z,82.476807
2019-05-13T07:15:13.342Z,83.190918
2019-05-13T07:18:43.311Z,81.04248
2019-05-13T07:22:14.419Z,80.737305
2019-05-13T07:25:44.396Z,80.633545
2019-05-13T07:29:14.873Z,81.04248
2019-05-13T07:32:44.484Z,80.596924
2019-05-13T07:36:14.457Z,80.69458
2019-05-13T07:39:44.433Z,78.411865
2019-05-13T07:43:14.390Z,78.308105
2019-05-13T07:46:44.402Z,78.515625
2019-05-13T07:50:14.497Z,78.411865
2019-05-13T07:53:44.461Z,77.79541
2019-05-13T07:57:14.424Z,77.185059
2019-05-13T08:00:45.420Z,76.123047
2019-05-13T08:04:22.207Z,74.798584
2019-05-13T08:07:51.474Z,72.039795
2019-05-13T08:11:22.326Z,73.675537
2019-05-13T08:14:53.269Z,72.515869
2019-05-13T08:18:23.250Z,71.392822
2019-05-13T08:21:53.343Z,68.835449
2019-05-13T08:25:23.303Z,69.012451
2019-05-13T08:29:01.460Z,64.111328
2019-05-13T08:32:28.197Z,64.007568
2019-05-13T08:36:01.426Z,64.007568
2019-05-13T08:39:33.210Z,61.456299
2019-05-13T08:43:06.849Z,63.775635
2019-05-13T08:46:36.138Z,61.834717
2019-05-13T08:50:06.112Z,60.101318
2019-05-13T08:53:36.559Z,62.72583
2019-05-13T08:57:06.527Z,64.562988
2019-05-13T09:00:36.479Z,65.17334
2019-05-13T09:04:06.452Z,64.324951
2019-05-13T09:07:36.425Z,63.000488
2019-05-13T09:11:07.538Z,60.858154
2019-05-13T09:14:38.512Z,62.969971
2019-05-13T09:18:11.413Z,61.791992
2019-05-13T09:21:42.291Z,61.199951
2019-05-13T09:25:12.692Z,59.643555
2019-05-13T09:28:42.569Z,61.853027
2019-05-13T09:32:12.533Z,58.544922
2019-05-13T09:35:43.504Z,58.215332
2019-05-13T09:39:13.465Z,57.501221
2019-05-13T09:42:51.001Z,57.678223
2019-05-13T09:46:17.445Z,56.182861
2019-05-13T09:49:48.410Z,55.548096
2019-05-13T09:53:18.384Z,55.932617
2019-05-13T09:56:51.905Z,57.855225
2019-05-13T10:00:22.530Z,52.789307
2019-05-13T10:03:57.746Z,50.762939
2019-05-13T10:07:25.461Z,50.079346
2019-05-13T10:10:55.411Z,48.937988
2019-05-13T10:14:25.567Z,48.046875
2019-05-13T10:17:55.583Z,48.760986
2019-05-13T10:21:25.607Z,48.760986
2019-05-13T10:24:55.608Z,47.924805
2019-05-13T10:28:25.602Z,43.060303
2019-05-13T10:31:55.688Z,43.383789
2019-05-13T10:35:25.718Z,48.22998
2019-05-13T10:38:55.727Z,43.121338
2019-05-13T10:42:25.689Z,47.070312
2019-05-13T10:45:55.667Z,47.55249
2019-05-13T10:49:25.642Z,43.688965
2019-05-13T10:52:55.635Z,43.688965
2019-05-13T10:56:25.596Z,40.936279
2019-05-13T10:59:59.633Z,44.012451
2019-05-13T11:03:32.237Z,41.851807
2019-05-13T11:07:03.207Z,40.014648
2019-05-13T11:10:33.451Z,38.787842
2019-05-13T11:14:10.796Z,39.190674
2019-05-13T11:17:38.304Z,38.671875
2019-05-13T11:21:12.146Z,40.057373
2019-05-13T11:24:43.452Z,40.039062
2019-05-13T11:28:13.367Z,38.934326
2019-05-13T11:31:43.377Z,41.491699
2019-05-13T11:35:13.986Z,40.783691
2019-05-13T11:38:46.112Z,37.866211
2019-05-13T11:42:16.078Z,41.308594
2019-05-13T11:45:46.046Z,39.996338
2019-05-13T11:49:16.041Z,39.794922
2019-05-13T11:52:46.074Z,42.980957
2019-05-13T11:56:16.043Z,40.374756
2019-05-13T11:59:46.015Z,39.227295
2019-05-13T12:03:15.967Z,40.722656
2019-05-13T12:06:49.178Z,37.011719
2019-05-13T12:10:22.603Z,37.695312
2019-05-13T12:13:52.720Z,37.982178
2019-05-13T12:17:22.996Z,39.074707
2019-05-13T12:20:54.411Z,38.482666
2019-05-13T12:24:24.097Z,40.338135
2019-05-13T12:27:54.066Z,42.053223
2019-05-13T12:31:24.039Z,39.349365
2019-05-13T12:34:54.013Z,39.349365
2019-05-13T12:38:24.048Z,40.356445
2019-05-13T12:41:55.109Z,39.025879
2019-05-13T12:45:25.109Z,40.252686
2019-05-13T12:48:55.055Z,40.478516
2019-05-13T12:52:25.008Z,39.550781
2019-05-13T12:55:56.800Z,40.155029
2019-05-13T12:59:28.112Z,37.109375
2019-05-13T13:03:01.450Z,37.414551
2019-05-13T13:06:39.556Z,34.100342
2019-05-13T13:10:05.058Z,34.301758
2019-05-13T13:13:56.520Z,34.405518
2019-05-13T13:17:12.808Z,35.296631
2019-05-13T13:20:44.036Z,36.102295
2019-05-13T13:24:15.358Z,35.699463
2019-05-13T13:28:07.856Z,33.984375
2019-05-13T13:31:24.933Z,34.301758
2019-05-13T13:34:55.479Z,37.530518
2019-05-13T13:38:26.513Z,38.238525
2019-05-13T13:41:56.646Z,38.116455
2019-05-13T13:45:26.607Z,38.604736
2019-05-13T13:48:56.611Z,38.623047
2019-05-13T13:52:26.585Z,41.28418
2019-05-13T13:55:56.542Z,43.52417
2019-05-13T13:59:28.223Z,42.132568
2019-05-13T14:03:06.335Z,41.748047
2019-05-13T14:10:11.677Z,42.193604
2019-05-13T14:13:42.571Z,38.745117
2019-05-13T14:17:12.157Z,39.849854
2019-05-13T14:20:43.143Z,38.018799
2019-05-13T14:24:13.111Z,39.953613
2019-05-13T14:27:43.754Z,47.241211
2019-05-13T14:31:13.760Z,46.209717
2019-05-13T14:34:43.758Z,44.232178
2019-05-13T14:38:13.725Z,43.768311
2019-05-13T14:41:44.690Z,44.213867
2019-05-13T14:45:14.821Z,45.550537
2019-05-13T14:48:45.781Z,49.645996
2019-05-13T14:52:15.849Z,46.551514
2019-05-13T14:55:45.825Z,47.381592
2019-05-13T14:59:16.779Z,49.108887
2019-05-13T15:02:47.767Z,49.438477
2019-05-13T15:06:21.381Z,50.860596
2019-05-13T15:09:51.723Z,50.958252
2019-05-13T15:13:21.721Z,51.263428
2019-05-13T15:17:02.631Z,49.157715
2019-05-13T15:20:26.823Z,49.359131
2019-05-13T15:23:56.796Z,49.993896
2019-05-13T15:27:26.786Z,50.500488
2019-05-13T15:30:57.759Z,50.396729
2019-05-13T15:34:27.978Z,50.701904
2019-05-13T15:37:59.315Z,51.135254
2019-05-13T15:41:29.983Z,51.44043
2019-05-13T15:45:01.774Z,52.349854
2019-05-13T15:48:34.096Z,51.947021
2019-05-13T15:52:04.074Z,54.180908
2019-05-13T15:55:35.106Z,53.167725
2019-05-13T15:59:08.330Z,53.497314
2019-05-13T16:02:37.049Z,53.289795
2019-05-13T16:06:07.314Z,54.589844
2019-05-13T16:09:35.589Z,50.20752
2019-05-13T16:13:05.740Z,44.128418
2019-05-13T16:16:36.234Z,41.326904
2019-05-13T16:20:06.587Z,43.359375
2019-05-13T16:23:36.993Z,40.789795
2019-05-13T16:27:07.356Z,39.465332
2019-05-13T16:30:38.713Z,38.94043
2019-05-13T16:34:10.057Z,42.614746
2019-05-13T16:37:43.516Z,41.369629
2019-05-13T16:41:13.695Z,39.94751
2019-05-13T16:44:44.023Z,42.999268
2019-05-13T16:48:14.395Z,47.77832
2019-05-13T16:51:44.691Z,50.32959
2019-05-13T16:55:15.131Z,50.933838
2019-05-13T16:58:45.417Z,52.990723
2019-05-13T17:02:15.847Z,52.404785
2019-05-13T17:05:46.092Z,55.657959
2019-05-13T17:09:16.476Z,54.46167
2019-05-13T17:12:47.807Z,55.883789
2019-05-13T17:16:21.166Z,55.303955
2019-05-13T17:19:53.693Z,56.140137
2019-05-13T17:23:23.704Z,58.990479
2019-05-13T17:26:53.913Z,61.431885
2019-05-13T17:30:24.256Z,58.917236
2019-05-13T17:33:54.643Z,58.129883
2019-05-13T17:37:25.135Z,55.889893
2019-05-13T17:40:55.494Z,59.47876
2019-05-13T17:44:25.901Z,62.054443
2019-05-13T17:47:56.200Z,65.783691
2019-05-13T17:51:26.443Z,66.63208
2019-05-13T17:54:56.805Z,69.317627
2019-05-13T17:58:28.100Z,71.972656
2019-05-13T18:02:02.264Z,71.734619
2019-05-13T18:05:31.844Z,69.622803
2019-05-13T18:09:03.547Z,73.706055
2019-05-13T18:14:01.088Z,73.504639
2019-05-13T18:17:32.082Z,72.888184
2019-05-13T18:21:02.399Z,74.21875
2019-05-13T18:24:35.994Z,75.341797
2019-05-13T18:28:06.112Z,76.159668
2019-05-13T18:31:38.683Z,76.599121
2019-05-13T18:35:03.133Z,74.151611
2019-05-13T18:40:21.879Z,74.249268
2019-05-13T18:45:36.643Z,76.940918
2019-05-13T18:50:54.293Z,76.940918
2019-05-13T18:54:26.331Z,76.568604
2019-05-13T18:57:57.584Z,73.809814
2019-05-13T19:01:28.653Z,75.445557
2019-05-13T19:05:01.380Z,72.174072
2019-05-13T19:08:32.319Z,76.263428
2019-05-13T19:12:02.256Z,74.21875
2019-05-13T19:15:32.580Z,73.199463
2019-05-13T19:19:12.160Z,74.523926
2019-05-13T19:22:41.261Z,70.672607
2019-05-13T19:26:11.600Z,72.106934
2019-05-13T19:29:42.873Z,73.162842
2019-05-13T19:33:14.271Z,72.753906
2019-05-13T19:36:45.675Z,73.504639
2019-05-13T19:40:17.671Z,75.689697
2019-05-13T19:43:51.134Z,77.056885
2019-05-13T19:47:22.470Z,72.857666
2019-05-13T19:50:52.883Z,74.047852
2019-05-13T19:54:23.071Z,75.622559
2019-05-13T19:57:53.580Z,77.606201
2019-05-13T20:01:24.024Z,78.356934
2019-05-13T20:04:52.469Z,80.450439
2019-05-13T20:08:22.846Z,80.688477
2019-05-13T20:11:55.915Z,81.201172
2019-05-13T20:15:28.976Z,81.408691
2019-05-13T20:19:01.599Z,78.497314
2019-05-13T20:22:33.202Z,79.01001
2019-05-13T20:26:03.538Z,75.213623
2019-05-13T20:29:34.617Z,73.468018
2019-05-13T20:33:06.127Z,74.871826
2019-05-13T20:36:36.750Z,74.871826
2019-05-13T20:40:07.924Z,76.818848
2019-05-13T20:43:42.457Z,75.384521
2019-05-13T20:47:11.653Z,77.539062
2019-05-13T20:50:42.073Z,76.446533
2019-05-13T20:54:12.560Z,75.384521
2019-05-13T20:57:42.973Z,76.000977
2019-05-13T21:01:32.448Z,74.56665
2019-05-13T21:05:05.943Z,74.871826
2019-05-13T21:08:44.673Z,75.689697
2019-05-13T21:12:15.185Z,76.922607
2019-05-13T21:15:45.221Z,76.104736
2019-05-13T21:19:15.290Z,78.356934
2019-05-13T21:22:45.501Z,80.206299
2019-05-13T21:26:16.728Z,79.998779
2019-05-13T21:29:47.056Z,80.407715
2019-05-13T21:33:17.359Z,80.206299
2019-05-13T21:36:48.772Z,79.589844
2019-05-13T21:40:21.670Z,78.668213
2019-05-13T21:43:52.271Z,78.564453
2019-05-13T21:47:22.521Z,78.668213
2019-05-13T21:50:53.044Z,78.356934
2019-05-13T21:54:23.378Z,78.460693
2019-05-13T21:57:53.400Z,77.435303
